Des Plaines, Illinois
Current Conditions -  °F | °C
As of 9:51 PM on Tuesday 21 Oct 2014 (Local Time) from KORD Reporting Station
Broken Clouds Broken Clouds  
Wind Chill: 42°   Ceiling: 2800
Heat Index: 46°   Visibility: 10mi
Dew Point: 38°   Wind: 7mph
Humidity: 73%   Direction: 20°NNE
Pressure: 30.26"   Gusts: NA
Location:  42.04°N, 87.89°W
Report Text: KORD 220251Z 02006KT 10SM BKN028 08/03 A3026 RMK AO2 SLP249 T00780033 51012
Loading
Personal Weather Stations






























Interactive Weather Map
Tropical Storm Tracking
New forecast layout! Learn more

10-Day Weather Forecast

Advertisements
Track Severe Weather on mobile